sensor_id;sensor_type;location;lat;lon;timestamp;temperature;humidity
35680;DHT22;21803;53.586;10.040;2023-05-07T04:02:48;19.80;49.40
35680;DHT22;21803;53.586;10.040;2023-05-07T04:05:15;23.20;51.10
35680;DHT22;21803;53.586;10.040;2023-05-07T04:07:41;21.10;50.00
35680;DHT22;21803;53.586;10.040;2023-05-07T04:10:07;21.10;50.10
35680;DHT22;21803;53.586;10.040;2023-05-07T04:12:32;21.10;50.10
35680;DHT22;21803;53.586;10.040;2023-05-07T04:14:58;21.10;50.10
35680;DHT22;21803;53.586;10.040;2023-05-07T04:17:24;21.10;50.10
35680;DHT22;21803;53.586;10.040;2023-05-07T04:19:49;21.10;50.10
35680;DHT22;21803;53.586;10.040;2023-05-07T04:22:15;21.10;50.00
35680;DHT22;21803;53.586;10.040;2023-05-07T04:24:40;21.10;50.10
35680;DHT22;21803;53.586;10.040;2023-05-07T04:27:06;21.10;50.00
35680;DHT22;21803;53.586;10.040;2023-05-07T04:29:31;21.10;50.00
35680;DHT22;21803;53.586;10.040;2023-05-07T04:31:57;21.10;50.00
35680;DHT22;21803;53.586;10.040;2023-05-07T04:34:24;21.10;50.00
35680;DHT22;21803;53.586;10.040;2023-05-07T04:36:49;21.10;50.00
35680;DHT22;21803;53.586;10.040;2023-05-07T04:39:15;21.10;50.00
35680;DHT22;21803;53.586;10.040;2023-05-07T04:41:40;21.10;50.00
35680;DHT22;21803;53.586;10.040;2023-05-07T04:44:06;21.10;50.00
35680;DHT22;21803;53.586;10.040;2023-05-07T04:46:32;21.10;50.00
35680;DHT22;21803;53.586;10.040;2023-05-07T04:48:57;21.10;49.90
35680;DHT22;21803;53.586;10.040;2023-05-07T04:51:22;21.10;49.90
35680;DHT22;21803;53.586;10.040;2023-05-07T04:53:48;21.10;50.00
35680;DHT22;21803;53.586;10.040;2023-05-07T04:56:14;21.20;50.00
35680;DHT22;21803;53.586;10.040;2023-05-07T04:58:40;21.10;49.90
35680;DHT22;21803;53.586;10.040;2023-05-07T05:01:05;21.10;50.00
35680;DHT22;21803;53.586;10.040;2023-05-07T05:03:31;21.10;49.90
35680;DHT22;21803;53.586;10.040;2023-05-07T05:05:56;21.10;49.90
35680;DHT22;21803;53.586;10.040;2023-05-07T05:08:24;21.10;49.90
35680;DHT22;21803;53.586;10.040;2023-05-07T05:10:50;21.10;49.90
35680;DHT22;21803;53.586;10.040;2023-05-07T05:13:16;21.10;49.80
35680;DHT22;21803;53.586;10.040;2023-05-07T05:15:41;21.10;49.80
35680;DHT22;21803;53.586;10.040;2023-05-07T05:18:07;21.10;49.80
35680;DHT22;21803;53.586;10.040;2023-05-07T05:20:32;21.10;49.90
35680;DHT22;21803;53.586;10.040;2023-05-07T05:22:58;21.10;49.80
35680;DHT22;21803;53.586;10.040;2023-05-07T05:25:24;21.10;49.80
35680;DHT22;21803;53.586;10.040;2023-05-07T05:27:49;21.10;49.80
35680;DHT22;21803;53.586;10.040;2023-05-07T05:30:14;21.10;49.80
35680;DHT22;21803;53.586;10.040;2023-05-07T05:32:40;21.10;49.80
35680;DHT22;21803;53.586;10.040;2023-05-07T05:35:06;21.10;49.80
35680;DHT22;21803;53.586;10.040;2023-05-07T05:37:31;21.10;50.10
35680;DHT22;21803;53.586;10.040;2023-05-07T05:39:57;21.20;49.70
35680;DHT22;21803;53.586;10.040;2023-05-07T05:42:23;21.10;49.70
35680;DHT22;21803;53.586;10.040;2023-05-07T05:44:48;21.10;49.70
35680;DHT22;21803;53.586;10.040;2023-05-07T05:47:14;21.10;49.70
35680;DHT22;21803;53.586;10.040;2023-05-07T05:49:39;21.10;49.60
35680;DHT22;21803;53.586;10.040;2023-05-07T05:52:05;21.10;49.70
35680;DHT22;21803;53.586;10.040;2023-05-07T05:54:30;21.10;49.70
35680;DHT22;21803;53.586;10.040;2023-05-07T05:56:56;21.10;49.70
35680;DHT22;21803;53.586;10.040;2023-05-07T05:59:22;21.10;49.70
35680;DHT22;21803;53.586;10.040;2023-05-07T06:01:48;21.10;49.60
35680;DHT22;21803;53.586;10.040;2023-05-07T06:04:13;21.10;49.70
35680;DHT22;21803;53.586;10.040;2023-05-07T06:06:39;21.10;49.60
35680;DHT22;21803;53.586;10.040;2023-05-07T06:09:04;21.10;49.60
35680;DHT22;21803;53.586;10.040;2023-05-07T06:11:31;21.10;49.60
35680;DHT22;21803;53.586;10.040;2023-05-07T06:13:57;21.10;49.60
35680;DHT22;21803;53.586;10.040;2023-05-07T06:16:22;21.10;49.60
35680;DHT22;21803;53.586;10.040;2023-05-07T06:18:48;21.10;49.60
35680;DHT22;21803;53.586;10.040;2023-05-07T06:21:14;21.10;49.60
35680;DHT22;21803;53.586;10.040;2023-05-07T06:23:40;21.10;49.60
35680;DHT22;21803;53.586;10.040;2023-05-07T06:26:06;21.10;49.60
35680;DHT22;21803;53.586;10.040;2023-05-07T06:28:32;21.10;49.60
35680;DHT22;21803;53.586;10.040;2023-05-07T06:31:17;21.10;49.60
35680;DHT22;21803;53.586;10.040;2023-05-07T06:33:45;21.10;49.50
35680;DHT22;21803;53.586;10.040;2023-05-07T06:36:11;21.10;49.50
35680;DHT22;21803;53.586;10.040;2023-05-07T06:38:37;21.10;49.60
35680;DHT22;21803;53.586;10.040;2023-05-07T06:41:02;21.10;49.50
35680;DHT22;21803;53.586;10.040;2023-05-07T06:43:28;21.10;49.50
35680;DHT22;21803;53.586;10.040;2023-05-07T06:45:53;21.20;49.50
35680;DHT22;21803;53.586;10.040;2023-05-07T06:48:19;21.10;49.50
35680;DHT22;21803;53.586;10.040;2023-05-07T06:50:45;21.10;49.50
35680;DHT22;21803;53.586;10.040;2023-05-07T06:53:10;21.10;49.50
35680;DHT22;21803;53.586;10.040;2023-05-07T06:55:36;21.10;49.50
35680;DHT22;21803;53.586;10.040;2023-05-07T06:58:03;21.10;49.50
35680;DHT22;21803;53.586;10.040;2023-05-07T07:00:29;21.10;49.50
35680;DHT22;21803;53.586;10.040;2023-05-07T07:02:56;21.10;49.50
35680;DHT22;21803;53.586;10.040;2023-05-07T07:05:22;21.10;49.40
35680;DHT22;21803;53.586;10.040;2023-05-07T07:07:47;21.10;49.40
35680;DHT22;21803;53.586;10.040;2023-05-07T07:10:21;21.10;49.40
35680;DHT22;21803;53.586;10.040;2023-05-07T07:12:48;21.10;49.40
35680;DHT22;21803;53.586;10.040;2023-05-07T07:15:14;21.10;49.40
35680;DHT22;21803;53.586;10.040;2023-05-07T07:17:39;21.10;49.40
35680;DHT22;21803;53.586;10.040;2023-05-07T07:20:06;21.10;49.40
35680;DHT22;21803;53.586;10.040;2023-05-07T07:22:31;21.10;49.40
35680;DHT22;21803;53.586;10.040;2023-05-07T07:24:57;21.10;49.30
35680;DHT22;21803;53.586;10.040;2023-05-07T07:27:22;21.10;49.40
35680;DHT22;21803;53.586;10.040;2023-05-07T07:29:48;21.10;49.40
35680;DHT22;21803;53.586;10.040;2023-05-07T07:32:14;21.10;49.40
35680;DHT22;21803;53.586;10.040;2023-05-07T07:34:40;21.10;49.40
35680;DHT22;21803;53.586;10.040;2023-05-07T07:37:05;21.10;49.40
35680;DHT22;21803;53.586;10.040;2023-05-07T07:39:32;21.10;49.40
35680;DHT22;21803;53.586;10.040;2023-05-07T07:41:58;21.10;49.40
35680;DHT22;21803;53.586;10.040;2023-05-07T07:44:23;21.10;49.40
35680;DHT22;21803;53.586;10.040;2023-05-07T07:46:49;21.10;49.40
35680;DHT22;21803;53.586;10.040;2023-05-07T07:49:15;21.10;49.40
35680;DHT22;21803;53.586;10.040;2023-05-07T07:51:41;21.20;49.40
35680;DHT22;21803;53.586;10.040;2023-05-07T07:54:06;21.10;49.40
35680;DHT22;21803;53.586;10.040;2023-05-07T07:56:33;21.10;49.30
35680;DHT22;21803;53.586;10.040;2023-05-07T07:59:01;21.20;49.40
35680;DHT22;21803;53.586;10.040;2023-05-07T08:01:29;21.10;49.30
35680;DHT22;21803;53.586;10.040;2023-05-07T08:03:54;21.10;49.40
35680;DHT22;21803;53.586;10.040;2023-05-07T08:06:20;21.10;49.40
35680;DHT22;21803;53.586;10.040;2023-05-07T08:08:45;21.10;49.40
35680;DHT22;21803;53.586;10.040;2023-05-07T08:11:11;21.10;49.50
35680;DHT22;21803;53.586;10.040;2023-05-07T08:13:38;21.20;49.50
35680;DHT22;21803;53.586;10.040;2023-05-07T08:16:04;21.20;49.40
35680;DHT22;21803;53.586;10.040;2023-05-07T08:18:29;21.20;49.40
35680;DHT22;21803;53.586;10.040;2023-05-07T08:20:55;21.10;49.40
35680;DHT22;21803;53.586;10.040;2023-05-07T08:23:21;21.20;49.40
35680;DHT22;21803;53.586;10.040;2023-05-07T08:25:48;21.20;49.40
35680;DHT22;21803;53.586;10.040;2023-05-07T08:28:13;21.20;50.00
35680;DHT22;21803;53.586;10.040;2023-05-07T08:30:39;21.10;49.30
35680;DHT22;21803;53.586;10.040;2023-05-07T08:33:04;21.20;49.40
35680;DHT22;21803;53.586;10.040;2023-05-07T08:35:30;21.20;49.40
35680;DHT22;21803;53.586;10.040;2023-05-07T08:37:56;21.20;49.40
35680;DHT22;21803;53.586;10.040;2023-05-07T08:40:26;21.20;49.40
35680;DHT22;21803;53.586;10.040;2023-05-07T08:42:53;21.20;49.40
35680;DHT22;21803;53.586;10.040;2023-05-07T08:45:19;21.20;49.30
35680;DHT22;21803;53.586;10.040;2023-05-07T08:47:51;21.20;49.30
35680;DHT22;21803;53.586;10.040;2023-05-07T08:50:18;21.20;49.30
35680;DHT22;21803;53.586;10.040;2023-05-07T08:52:44;21.20;49.30
35680;DHT22;21803;53.586;10.040;2023-05-07T08:55:10;21.20;49.30
35680;DHT22;21803;53.586;10.040;2023-05-07T08:57:36;21.20;49.30
35680;DHT22;21803;53.586;10.040;2023-05-07T09:00:03;21.20;49.20
35680;DHT22;21803;53.586;10.040;2023-05-07T09:02:29;21.20;49.20
35680;DHT22;21803;53.586;10.040;2023-05-07T09:04:55;21.20;49.30
35680;DHT22;21803;53.586;10.040;2023-05-07T09:07:21;21.20;49.20
35680;DHT22;21803;53.586;10.040;2023-05-07T09:09:47;21.20;49.20
35680;DHT22;21803;53.586;10.040;2023-05-07T09:12:13;21.20;49.20
35680;DHT22;21803;53.586;10.040;2023-05-07T09:14:38;21.20;49.20
35680;DHT22;21803;53.586;10.040;2023-05-07T09:17:04;21.20;49.20
35680;DHT22;21803;53.586;10.040;2023-05-07T09:19:30;21.20;49.20
35680;DHT22;21803;53.586;10.040;2023-05-07T09:22:03;21.20;49.20
35680;DHT22;21803;53.586;10.040;2023-05-07T09:24:29;21.20;49.20
35680;DHT22;21803;53.586;10.040;2023-05-07T09:26:59;21.20;49.20
35680;DHT22;21803;53.586;10.040;2023-05-07T09:29:25;21.20;49.10
35680;DHT22;21803;53.586;10.040;2023-05-07T09:31:51;21.20;49.10
35680;DHT22;21803;53.586;10.040;2023-05-07T09:34:16;21.20;49.00
35680;DHT22;21803;53.586;10.040;2023-05-07T09:36:42;21.20;49.00
35680;DHT22;21803;53.586;10.040;2023-05-07T09:39:07;21.20;49.00
35680;DHT22;21803;53.586;10.040;2023-05-07T09:41:33;21.20;49.00
35680;DHT22;21803;53.586;10.040;2023-05-07T09:44:08;21.20;49.10
35680;DHT22;21803;53.586;10.040;2023-05-07T09:46:36;21.20;49.10
35680;DHT22;21803;53.586;10.040;2023-05-07T09:49:02;21.20;49.00
35680;DHT22;21803;53.586;10.040;2023-05-07T09:51:36;21.20;49.90
35680;DHT22;21803;53.586;10.040;2023-05-07T09:54:04;21.20;50.20
35680;DHT22;21803;53.586;10.040;2023-05-07T09:56:30;21.20;49.60
35680;DHT22;21803;53.586;10.040;2023-05-07T09:59:02;21.20;49.30
35680;DHT22;21803;53.586;10.040;2023-05-07T10:01:30;21.30;49.30
35680;DHT22;21803;53.586;10.040;2023-05-07T10:03:57;21.20;49.20
35680;DHT22;21803;53.586;10.040;2023-05-07T10:06:24;21.30;49.20
35680;DHT22;21803;53.586;10.040;2023-05-07T10:08:53;21.30;49.00
35680;DHT22;21803;53.586;10.040;2023-05-07T10:11:20;21.20;48.90
35680;DHT22;21803;53.586;10.040;2023-05-07T10:13:48;21.30;48.80
35680;DHT22;21803;53.586;10.040;2023-05-07T10:16:14;21.30;48.80
35680;DHT22;21803;53.586;10.040;2023-05-07T10:18:41;21.30;48.80
35680;DHT22;21803;53.586;10.040;2023-05-07T10:23:45;22.30;49.30
35680;DHT22;21803;53.586;10.040;2023-05-07T10:26:11;21.30;48.80
35680;DHT22;21803;53.586;10.040;2023-05-07T10:28:40;21.20;48.80
35680;DHT22;21803;53.586;10.040;2023-05-07T10:31:34;21.30;48.80
35680;DHT22;21803;53.586;10.040;2023-05-07T10:34:08;21.30;48.80
35680;DHT22;21803;53.586;10.040;2023-05-07T10:36:35;21.20;48.70
35680;DHT22;21803;53.586;10.040;2023-05-07T10:39:01;21.30;48.70
35680;DHT22;21803;53.586;10.040;2023-05-07T10:41:27;21.30;48.70
35680;DHT22;21803;53.586;10.040;2023-05-07T10:43:52;21.30;48.70
35680;DHT22;21803;53.586;10.040;2023-05-07T10:46:19;21.30;48.60
35680;DHT22;21803;53.586;10.040;2023-05-07T10:51:26;21.30;48.70
35680;DHT22;21803;53.586;10.040;2023-05-07T10:56:42;21.30;48.70
35680;DHT22;21803;53.586;10.040;2023-05-07T10:59:34;21.30;48.60
35680;DHT22;21803;53.586;10.040;2023-05-07T11:02:05;21.20;48.60
35680;DHT22;21803;53.586;10.040;2023-05-07T11:04:33;21.20;48.60
35680;DHT22;21803;53.586;10.040;2023-05-07T11:10:00;21.30;48.70
35680;DHT22;21803;53.586;10.040;2023-05-07T11:15:03;21.30;48.70
35680;DHT22;21803;53.586;10.040;2023-05-07T11:17:29;21.30;48.70
35680;DHT22;21803;53.586;10.040;2023-05-07T11:19:57;21.20;48.60
35680;DHT22;21803;53.586;10.040;2023-05-07T11:25:02;21.30;48.60
35680;DHT22;21803;53.586;10.040;2023-05-07T11:27:29;21.30;48.60
35680;DHT22;21803;53.586;10.040;2023-05-07T11:29:55;21.30;48.60
35680;DHT22;21803;53.586;10.040;2023-05-07T11:32:29;21.30;48.60
35680;DHT22;21803;53.586;10.040;2023-05-07T11:34:56;21.30;48.50
35680;DHT22;21803;53.586;10.040;2023-05-07T11:37:22;21.30;48.50
35680;DHT22;21803;53.586;10.040;2023-05-07T11:39:49;21.20;48.50
35680;DHT22;21803;53.586;10.040;2023-05-07T11:42:39;21.30;48.50
35680;DHT22;21803;53.586;10.040;2023-05-07T11:45:06;21.30;48.50
35680;DHT22;21803;53.586;10.040;2023-05-07T11:47:33;21.30;48.50
35680;DHT22;21803;53.586;10.040;2023-05-07T11:50:08;21.30;48.50
35680;DHT22;21803;53.586;10.040;2023-05-07T11:52:34;21.30;48.50
35680;DHT22;21803;53.586;10.040;2023-05-07T11:55:01;19.10;47.40
35680;DHT22;21803;53.586;10.040;2023-05-07T11:57:27;21.30;48.50
35680;DHT22;21803;53.586;10.040;2023-05-07T11:59:54;21.30;48.50
35680;DHT22;21803;53.586;10.040;2023-05-07T12:02:20;21.30;48.50
35680;DHT22;21803;53.586;10.040;2023-05-07T12:04:45;21.30;48.50
35680;DHT22;21803;53.586;10.040;2023-05-07T12:07:14;21.30;48.50
35680;DHT22;21803;53.586;10.040;2023-05-07T12:09:43;21.30;48.50
35680;DHT22;21803;53.586;10.040;2023-05-07T12:12:09;21.30;49.10
35680;DHT22;21803;53.586;10.040;2023-05-07T12:14:42;21.30;49.70
35680;DHT22;21803;53.586;10.040;2023-05-07T12:17:09;21.30;50.30
35680;DHT22;21803;53.586;10.040;2023-05-07T12:19:36;21.30;50.60
35680;DHT22;21803;53.586;10.040;2023-05-07T12:22:05;21.30;50.70
35680;DHT22;21803;53.586;10.040;2023-05-07T12:24:49;21.30;50.90
35680;DHT22;21803;53.586;10.040;2023-05-07T12:27:16;21.30;51.00
35680;DHT22;21803;53.586;10.040;2023-05-07T12:29:49;21.30;51.00
35680;DHT22;21803;53.586;10.040;2023-05-07T12:32:19;21.30;51.10
35680;DHT22;21803;53.586;10.040;2023-05-07T12:34:46;21.40;51.10
35680;DHT22;21803;53.586;10.040;2023-05-07T12:37:12;21.40;51.20
35680;DHT22;21803;53.586;10.040;2023-05-07T12:39:43;21.40;51.20
35680;DHT22;21803;53.586;10.040;2023-05-07T12:42:15;21.40;51.20
35680;DHT22;21803;53.586;10.040;2023-05-07T12:44:43;21.40;51.20
35680;DHT22;21803;53.586;10.040;2023-05-07T12:47:10;21.40;51.20
35680;DHT22;21803;53.586;10.040;2023-05-07T12:49:36;21.40;51.20
35680;DHT22;21803;53.586;10.040;2023-05-07T12:52:04;21.40;51.30
35680;DHT22;21803;53.586;10.040;2023-05-07T12:54:34;21.40;51.30
35680;DHT22;21803;53.586;10.040;2023-05-07T12:57:02;21.50;51.30
35680;DHT22;21803;53.586;10.040;2023-05-07T12:59:38;21.40;51.30
35680;DHT22;21803;53.586;10.040;2023-05-07T13:02:05;21.40;51.30
35680;DHT22;21803;53.586;10.040;2023-05-07T13:04:31;21.40;51.30
35680;DHT22;21803;53.586;10.040;2023-05-07T13:06:57;21.40;51.40
35680;DHT22;21803;53.586;10.040;2023-05-07T13:09:23;21.40;51.40
35680;DHT22;21803;53.586;10.040;2023-05-07T13:11:48;21.40;51.40
35680;DHT22;21803;53.586;10.040;2023-05-07T13:14:14;21.40;51.40
35680;DHT22;21803;53.586;10.040;2023-05-07T13:16:40;21.50;51.50
35680;DHT22;21803;53.586;10.040;2023-05-07T13:19:05;21.40;51.40
35680;DHT22;21803;53.586;10.040;2023-05-07T13:21:31;21.40;51.40
35680;DHT22;21803;53.586;10.040;2023-05-07T13:23:59;21.40;51.50
35680;DHT22;21803;53.586;10.040;2023-05-07T13:26:25;21.40;51.50
35680;DHT22;21803;53.586;10.040;2023-05-07T13:28:52;21.40;51.50
35680;DHT22;21803;53.586;10.040;2023-05-07T13:31:17;21.40;51.60
35680;DHT22;21803;53.586;10.040;2023-05-07T13:33:43;21.40;51.60
35680;DHT22;21803;53.586;10.040;2023-05-07T13:36:09;21.50;51.60
35680;DHT22;21803;53.586;10.040;2023-05-07T13:38:34;21.40;51.60
35680;DHT22;21803;53.586;10.040;2023-05-07T13:41:00;21.40;51.60
35680;DHT22;21803;53.586;10.040;2023-05-07T13:43:26;21.40;51.60
35680;DHT22;21803;53.586;10.040;2023-05-07T13:45:51;21.40;51.70
35680;DHT22;21803;53.586;10.040;2023-05-07T13:48:17;21.40;51.70
35680;DHT22;21803;53.586;10.040;2023-05-07T13:50:42;21.50;51.70
35680;DHT22;21803;53.586;10.040;2023-05-07T13:53:08;21.40;51.70
35680;DHT22;21803;53.586;10.040;2023-05-07T13:55:33;21.50;51.80
35680;DHT22;21803;53.586;10.040;2023-05-07T13:58:01;21.50;51.80
35680;DHT22;21803;53.586;10.040;2023-05-07T14:00:27;21.50;51.80
35680;DHT22;21803;53.586;10.040;2023-05-07T14:02:53;21.40;51.70
35680;DHT22;21803;53.586;10.040;2023-05-07T14:05:19;21.50;51.80
35680;DHT22;21803;53.586;10.040;2023-05-07T14:07:45;21.40;51.80
35680;DHT22;21803;53.586;10.040;2023-05-07T14:10:10;21.40;51.80
35680;DHT22;21803;53.586;10.040;2023-05-07T14:12:36;21.50;51.80
35680;DHT22;21803;53.586;10.040;2023-05-07T14:15:02;21.40;51.80
35680;DHT22;21803;53.586;10.040;2023-05-07T14:17:28;21.50;51.90
35680;DHT22;21803;53.586;10.040;2023-05-07T14:19:54;21.50;51.90
35680;DHT22;21803;53.586;10.040;2023-05-07T14:22:20;21.50;52.00
35680;DHT22;21803;53.586;10.040;2023-05-07T14:24:47;21.50;52.10
35680;DHT22;21803;53.586;10.040;2023-05-07T14:27:12;21.50;52.10
35680;DHT22;21803;53.586;10.040;2023-05-07T14:29:38;21.50;52.20
35680;DHT22;21803;53.586;10.040;2023-05-07T14:32:03;21.50;52.20
35680;DHT22;21803;53.586;10.040;2023-05-07T14:34:29;21.50;52.20
35680;DHT22;21803;53.586;10.040;2023-05-07T14:36:55;21.50;52.20
35680;DHT22;21803;53.586;10.040;2023-05-07T14:39:21;21.50;52.30
35680;DHT22;21803;53.586;10.040;2023-05-07T14:41:46;21.50;52.30
35680;DHT22;21803;53.586;10.040;2023-05-07T14:44:12;21.50;52.40
35680;DHT22;21803;53.586;10.040;2023-05-07T14:46:37;21.50;52.40
35680;DHT22;21803;53.586;10.040;2023-05-07T14:49:03;21.50;52.40
35680;DHT22;21803;53.586;10.040;2023-05-07T14:51:28;21.50;52.30
35680;DHT22;21803;53.586;10.040;2023-05-07T14:53:54;21.50;52.30
35680;DHT22;21803;53.586;10.040;2023-05-07T14:56:20;21.50;52.20
35680;DHT22;21803;53.586;10.040;2023-05-07T14:58:47;21.50;52.20
35680;DHT22;21803;53.586;10.040;2023-05-07T15:01:13;21.50;52.20
35680;DHT22;21803;53.586;10.040;2023-05-07T15:03:39;21.50;52.10
35680;DHT22;21803;53.586;10.040;2023-05-07T15:06:05;21.50;52.10
35680;DHT22;21803;53.586;10.040;2023-05-07T15:08:31;21.50;52.00
35680;DHT22;21803;53.586;10.040;2023-05-07T15:10:56;21.50;52.10
35680;DHT22;21803;53.586;10.040;2023-05-07T15:13:22;21.50;52.10
35680;DHT22;21803;53.586;10.040;2023-05-07T15:15:48;21.50;52.10
35680;DHT22;21803;53.586;10.040;2023-05-07T15:18:14;21.50;52.10
35680;DHT22;21803;53.586;10.040;2023-05-07T15:20:41;21.50;52.10
35680;DHT22;21803;53.586;10.040;2023-05-07T15:23:07;21.50;52.10
35680;DHT22;21803;53.586;10.040;2023-05-07T15:25:37;21.50;52.60
35680;DHT22;21803;53.586;10.040;2023-05-07T15:28:03;21.50;52.00
35680;DHT22;21803;53.586;10.040;2023-05-07T15:30:28;21.50;52.00
35680;DHT22;21803;53.586;10.040;2023-05-07T15:32:54;21.50;51.90
35680;DHT22;21803;53.586;10.040;2023-05-07T15:35:20;21.50;51.90
35680;DHT22;21803;53.586;10.040;2023-05-07T15:37:48;21.50;51.90
35680;DHT22;21803;53.586;10.040;2023-05-07T15:40:15;21.50;51.90
35680;DHT22;21803;53.586;10.040;2023-05-07T15:42:40;21.50;51.80
35680;DHT22;21803;53.586;10.040;2023-05-07T15:45:06;21.50;52.40
35680;DHT22;21803;53.586;10.040;2023-05-07T15:47:33;21.50;51.80
35680;DHT22;21803;53.586;10.040;2023-05-07T15:50:00;21.50;51.80
35680;DHT22;21803;53.586;10.040;2023-05-07T15:52:26;21.50;51.70
35680;DHT22;21803;53.586;10.040;2023-05-07T15:54:52;21.50;51.70
35680;DHT22;21803;53.586;10.040;2023-05-07T15:57:18;21.50;51.70
35680;DHT22;21803;53.586;10.040;2023-05-07T15:59:43;21.50;51.70
35680;DHT22;21803;53.586;10.040;2023-05-07T16:02:09;21.50;51.60
35680;DHT22;21803;53.586;10.040;2023-05-07T16:04:34;21.50;51.60
35680;DHT22;21803;53.586;10.040;2023-05-07T16:07:00;21.50;51.60
35680;DHT22;21803;53.586;10.040;2023-05-07T16:09:25;21.50;51.60
35680;DHT22;21803;53.586;10.040;2023-05-07T16:11:53;21.50;51.50
35680;DHT22;21803;53.586;10.040;2023-05-07T16:14:19;21.50;51.50
35680;DHT22;21803;53.586;10.040;2023-05-07T16:16:44;21.50;51.50
35680;DHT22;21803;53.586;10.040;2023-05-07T16:19:10;21.50;51.50
35680;DHT22;21803;53.586;10.040;2023-05-07T16:21:35;21.50;51.50
35680;DHT22;21803;53.586;10.040;2023-05-07T16:24:01;21.50;51.50
35680;DHT22;21803;53.586;10.040;2023-05-07T16:26:27;21.50;51.40
35680;DHT22;21803;53.586;10.040;2023-05-07T16:28:52;21.50;51.40
35680;DHT22;21803;53.586;10.040;2023-05-07T16:31:18;21.50;51.40
35680;DHT22;21803;53.586;10.040;2023-05-07T16:33:43;21.50;51.30
35680;DHT22;21803;53.586;10.040;2023-05-07T16:36:09;21.50;51.20
35680;DHT22;21803;53.586;10.040;2023-05-07T16:38:35;21.50;51.20
35680;DHT22;21803;53.586;10.040;2023-05-07T16:41:01;21.60;51.30
35680;DHT22;21803;53.586;10.040;2023-05-07T16:43:27;21.50;51.90
35680;DHT22;21803;53.586;10.040;2023-05-07T16:45:52;21.50;51.20
35680;DHT22;21803;53.586;10.040;2023-05-07T16:48:18;21.50;51.20
35680;DHT22;21803;53.586;10.040;2023-05-07T16:50:43;21.40;51.20
35680;DHT22;21803;53.586;10.040;2023-05-07T16:53:10;21.50;51.10
35680;DHT22;21803;53.586;10.040;2023-05-07T16:55:36;21.50;51.10
35680;DHT22;21803;53.586;10.040;2023-05-07T16:58:03;21.50;51.10
35680;DHT22;21803;53.586;10.040;2023-05-07T17:00:29;21.60;51.10
35680;DHT22;21803;53.586;10.040;2023-05-07T17:02:55;21.50;51.00
35680;DHT22;21803;53.586;10.040;2023-05-07T17:05:20;21.60;51.10
35680;DHT22;21803;53.586;10.040;2023-05-07T17:07:46;21.50;51.00
35680;DHT22;21803;53.586;10.040;2023-05-07T17:10:11;21.50;51.00
35680;DHT22;21803;53.586;10.040;2023-05-07T17:12:37;21.60;51.00
35680;DHT22;21803;53.586;10.040;2023-05-07T17:15:02;21.60;51.00
35680;DHT22;21803;53.586;10.040;2023-05-07T17:17:28;21.50;51.00
35680;DHT22;21803;53.586;10.040;2023-05-07T17:19:53;21.50;50.90
35680;DHT22;21803;53.586;10.040;2023-05-07T17:22:19;21.50;50.90
35680;DHT22;21803;53.586;10.040;2023-05-07T17:24:45;21.60;50.90
35680;DHT22;21803;53.586;10.040;2023-05-07T17:27:10;21.50;50.90
35680;DHT22;21803;53.586;10.040;2023-05-07T17:29:36;21.50;50.80
35680;DHT22;21803;53.586;10.040;2023-05-07T17:32:01;21.50;50.80
35680;DHT22;21803;53.586;10.040;2023-05-07T17:34:27;21.50;50.70
35680;DHT22;21803;53.586;10.040;2023-05-07T17:36:52;21.60;50.80
35680;DHT22;21803;53.586;10.040;2023-05-07T17:39:18;21.60;50.70
35680;DHT22;21803;53.586;10.040;2023-05-07T17:41:44;21.50;50.70
35680;DHT22;21803;53.586;10.040;2023-05-07T17:44:10;21.50;50.60
35680;DHT22;21803;53.586;10.040;2023-05-07T17:46:35;21.60;50.60
35680;DHT22;21803;53.586;10.040;2023-05-07T17:49:01;21.60;50.60
35680;DHT22;21803;53.586;10.040;2023-05-07T17:51:26;21.60;50.60
35680;DHT22;21803;53.586;10.040;2023-05-07T17:53:54;21.50;50.50
35680;DHT22;21803;53.586;10.040;2023-05-07T17:56:20;21.60;50.50
35680;DHT22;21803;53.586;10.040;2023-05-07T17:58:46;21.60;50.50
35680;DHT22;21803;53.586;10.040;2023-05-07T18:01:11;21.50;50.40
35680;DHT22;21803;53.586;10.040;2023-05-07T18:03:36;21.60;50.40
35680;DHT22;21803;53.586;10.040;2023-05-07T18:06:02;21.60;50.40
35680;DHT22;21803;53.586;10.040;2023-05-07T18:08:28;21.50;50.30
35680;DHT22;21803;53.586;10.040;2023-05-07T18:10:53;21.60;50.30
35680;DHT22;21803;53.586;10.040;2023-05-07T18:13:19;21.60;50.30
35680;DHT22;21803;53.586;10.040;2023-05-07T18:15:45;21.60;50.20
35680;DHT22;21803;53.586;10.040;2023-05-07T18:18:11;21.60;50.30
35680;DHT22;21803;53.586;10.040;2023-05-07T18:20:37;21.50;50.20
35680;DHT22;21803;53.586;10.040;2023-05-07T18:23:02;21.60;50.20
35680;DHT22;21803;53.586;10.040;2023-05-07T18:25:29;21.60;50.20
35680;DHT22;21803;53.586;10.040;2023-05-07T18:27:54;21.50;50.00
35680;DHT22;21803;53.586;10.040;2023-05-07T18:30:20;21.60;50.10
35680;DHT22;21803;53.586;10.040;2023-05-07T18:32:46;21.50;50.00
35680;DHT22;21803;53.586;10.040;2023-05-07T18:35:12;21.60;50.10
35680;DHT22;21803;53.586;10.040;2023-05-07T18:37:37;21.60;50.10
35680;DHT22;21803;53.586;10.040;2023-05-07T18:40:03;21.50;50.00
35680;DHT22;21803;53.586;10.040;2023-05-07T18:42:30;21.60;50.00
35680;DHT22;21803;53.586;10.040;2023-05-07T18:44:56;21.50;50.00
35680;DHT22;21803;53.586;10.040;2023-05-07T18:47:22;21.60;50.00
35680;DHT22;21803;53.586;10.040;2023-05-07T18:49:47;21.60;50.00
35680;DHT22;21803;53.586;10.040;2023-05-07T18:52:13;21.60;50.00
35680;DHT22;21803;53.586;10.040;2023-05-07T18:54:40;21.50;50.00
35680;DHT22;21803;53.586;10.040;2023-05-07T18:57:07;21.60;50.00
35680;DHT22;21803;53.586;10.040;2023-05-07T18:59:33;21.50;49.90
35680;DHT22;21803;53.586;10.040;2023-05-07T19:01:58;21.50;49.90
35680;DHT22;21803;53.586;10.040;2023-05-07T19:04:24;21.50;49.90
35680;DHT22;21803;53.586;10.040;2023-05-07T19:06:49;21.60;49.90
35680;DHT22;21803;53.586;10.040;2023-05-07T19:09:15;21.60;49.90
35680;DHT22;21803;53.586;10.040;2023-05-07T19:11:40;21.60;49.90
35680;DHT22;21803;53.586;10.040;2023-05-07T19:14:06;21.50;49.80
35680;DHT22;21803;53.586;10.040;2023-05-07T19:16:32;21.50;49.80
35680;DHT22;21803;53.586;10.040;2023-05-07T19:18:57;21.60;49.80
35680;DHT22;21803;53.586;10.040;2023-05-07T19:21:23;21.60;49.80
35680;DHT22;21803;53.586;10.040;2023-05-07T19:23:49;21.50;49.70
35680;DHT22;21803;53.586;10.040;2023-05-07T19:26:17;21.60;49.70
35680;DHT22;21803;53.586;10.040;2023-05-07T19:28:44;21.40;49.60